Time;durP1;ratioP1;P1;durP2;ratioP2;P2;SDS_P1;SDS_P2;PMS_P1;PMS_P2;Temp;Humidity;BMP_temperature;BMP_pressure;BME280_temperature;BME280_humidity;BME280_pressure;Samples;Min_cycle;Max_cycle;Signal;HPM_P1;HPM_P2
2022/02/06 00:01:00;;;;;;;59.95;3.80;;;;;;;;;;5059305;28;20594;-71
2022/02/06 00:03:30;;;;;;;58.70;4.38;;;;;;;;;;5071153;28;20236;-71
2022/02/06 00:05:57;;;;;;;59.88;4.03;;;;;;;;;;5071579;28;20563;-70
2022/02/06 00:08:25;;;;;;;64.13;4.25;;;;;;;;;;5071171;28;20301;-70
2022/02/06 00:10:52;;;;;;;62.45;4.40;;;;;;;;;;5071117;28;20212;-71
2022/02/06 00:13:19;;;;;;;58.67;3.50;;;;;;;;;;5070940;28;20243;-70
2022/02/06 00:15:47;;;;;;;60.80;4.15;;;;;;;;;;5071503;28;20206;-70
2022/02/06 00:18:14;;;;;;;58.55;3.85;;;;;;;;;;5070631;28;20201;-70
2022/02/06 00:20:50;;;;;;;63.33;4.30;;;;;;;;;;5070972;28;20220;-70
2022/02/06 00:23:20;;;;;;;66.70;4.07;;;;;;;;;;5070902;28;20230;-70
2022/02/06 00:25:55;;;;;;;60.45;4.00;;;;;;;;;;5071175;28;20296;-70
2022/02/06 00:28:35;;;;;;;58.80;3.70;;;;;;;;;;5073392;28;20232;-70
2022/02/06 00:31:11;;;;;;;60.45;3.95;;;;;;;;;;5074725;28;20223;-70
2022/02/06 00:33:46;;;;;;;59.60;4.00;;;;;;;;;;5072374;28;20316;-71
2022/02/06 00:39:05;;;;;;;61.38;4.15;;;;;;;;;;5073843;28;20582;-70
2022/02/06 00:41:32;;;;;;;58.78;3.97;;;;;;;;;;5074355;28;20209;-70
2022/02/06 00:44:02;;;;;;;61.40;3.70;;;;;;;;;;5074343;28;20229;-70
2022/02/06 00:46:30;;;;;;;58.38;3.55;;;;;;;;;;5074550;28;20859;-70
2022/02/06 00:48:59;;;;;;;61.10;3.97;;;;;;;;;;5074031;28;20643;-70
2022/02/06 00:51:35;;;;;;;59.42;3.65;;;;;;;;;;5074584;28;20588;-70
2022/02/06 00:54:03;;;;;;;59.00;4.05;;;;;;;;;;5074325;28;20603;-70
2022/02/06 00:56:30;;;;;;;65.88;3.80;;;;;;;;;;5074251;28;20746;-71
2022/02/06 00:58:57;;;;;;;59.60;3.45;;;;;;;;;;5073412;28;20240;-70
2022/02/06 01:01:25;;;;;;;63.15;3.40;;;;;;;;;;5073821;28;20218;-70
2022/02/06 01:03:53;;;;;;;60.15;3.80;;;;;;;;;;5072423;28;20320;-70
2022/02/06 01:06:20;;;;;;;59.97;3.60;;;;;;;;;;5073825;28;20294;-71
2022/02/06 01:08:49;;;;;;;59.42;3.38;;;;;;;;;;5073896;28;20312;-71
2022/02/06 01:11:16;;;;;;;61.55;3.78;;;;;;;;;;5073976;28;20206;-71
2022/02/06 01:16:30;;;;;;;60.90;3.10;;;;;;;;;;5073599;28;20206;-71
2022/02/06 01:19:01;;;;;;;62.42;3.30;;;;;;;;;;5073384;28;20216;-71
2022/02/06 01:21:45;;;;;;;61.70;4.18;;;;;;;;;;5073349;28;20212;-71
2022/02/06 01:24:17;;;;;;;61.15;3.75;;;;;;;;;;5073648;28;20264;-71
2022/02/06 01:26:49;;;;;;;63.38;3.58;;;;;;;;;;5073756;28;20301;-71
2022/02/06 01:29:27;;;;;;;60.42;3.08;;;;;;;;;;5073615;28;20229;-71
2022/02/06 01:32:00;;;;;;;61.00;3.28;;;;;;;;;;5073640;28;20387;-71
2022/02/06 01:34:35;;;;;;;62.13;4.13;;;;;;;;;;5073482;28;20398;-71
2022/02/06 01:37:09;;;;;;;62.63;4.00;;;;;;;;;;5071243;28;20254;-71
2022/02/06 01:39:51;;;;;;;59.63;3.00;;;;;;;;;;5073486;28;20296;-71
2022/02/06 01:42:27;;;;;;;61.00;4.32;;;;;;;;;;5074686;28;20209;-71
2022/02/06 01:45:09;;;;;;;61.13;3.97;;;;;;;;;;5080958;28;20252;-71
2022/02/06 02:01:34;;;;;;;58.38;3.03;;;;;;;;;;5083742;28;20278;-71
2022/02/06 02:04:09;;;;;;;60.40;3.08;;;;;;;;;;5083794;28;20251;-71
2022/02/06 02:09:57;;;;;;;63.05;3.78;;;;;;;;;;5070037;28;20495;-71
2022/02/06 02:16:01;;;;;;;62.17;4.28;;;;;;;;;;5062490;28;20266;-71
2022/02/06 02:21:28;;;;;;;58.53;3.13;;;;;;;;;;5063272;28;20212;-71
2022/02/06 02:26:49;;;;;;;58.88;3.25;;;;;;;;;;5061639;28;20221;-71
2022/02/06 02:32:40;;;;;;;59.63;3.20;;;;;;;;;;5064795;28;20245;-71
2022/02/06 02:46:25;;;;;;;59.42;3.20;;;;;;;;;;5077474;28;20201;-71
2022/02/06 02:48:58;;;;;;;59.20;3.20;;;;;;;;;;5083954;28;20213;-71
2022/02/06 02:51:33;;;;;;;61.22;2.80;;;;;;;;;;5084744;28;20205;-71
2022/02/06 02:54:09;;;;;;;60.63;2.95;;;;;;;;;;5085416;28;20248;-71
2022/02/06 02:56:44;;;;;;;59.13;3.17;;;;;;;;;;5085974;28;20208;-69
2022/02/06 02:59:21;;;;;;;60.22;3.13;;;;;;;;;;5089473;28;20205;-71
2022/02/06 03:01:55;;;;;;;60.15;3.80;;;;;;;;;;5090118;28;20209;-71
2022/02/06 03:04:25;;;;;;;61.03;3.30;;;;;;;;;;5087370;28;20320;-71
2022/02/06 03:06:54;;;;;;;60.42;3.25;;;;;;;;;;5074548;28;20601;-72
2022/02/06 03:09:26;;;;;;;63.15;3.13;;;;;;;;;;5076341;28;20209;-71
2022/02/06 03:11:58;;;;;;;60.75;3.45;;;;;;;;;;5094371;28;20216;-71
2022/02/06 03:14:40;;;;;;;62.40;3.35;;;;;;;;;;5091899;28;20265;-71
2022/02/06 03:17:21;;;;;;;59.10;3.55;;;;;;;;;;5094297;28;20212;-71
2022/02/06 03:20:05;;;;;;;59.08;2.90;;;;;;;;;;5092633;28;20213;-71
2022/02/06 03:22:48;;;;;;;58.92;2.90;;;;;;;;;;5095030;28;20259;-71
2022/02/06 03:25:25;;;;;;;59.17;3.78;;;;;;;;;;5094505;28;20225;-71
2022/02/06 03:27:59;;;;;;;61.38;3.78;;;;;;;;;;5071521;28;20241;-71
2022/02/06 03:30:29;;;;;;;58.05;2.90;;;;;;;;;;5071609;28;20209;-71
2022/02/06 03:33:02;;;;;;;64.10;3.55;;;;;;;;;;5071666;28;20705;-71
2022/02/06 03:35:34;;;;;;;58.75;3.13;;;;;;;;;;5071583;28;20209;-71
2022/02/06 03:38:04;;;;;;;59.97;2.90;;;;;;;;;;5071339;28;20206;-71
2022/02/06 03:40:40;;;;;;;59.78;3.17;;;;;;;;;;5071550;28;20202;-71
2022/02/06 03:43:15;;;;;;;59.78;3.55;;;;;;;;;;5071180;28;20573;-71
2022/02/06 03:45:54;;;;;;;60.95;3.60;;;;;;;;;;5065045;28;20230;-70
2022/02/06 03:48:32;;;;;;;59.05;3.05;;;;;;;;;;5051128;28;20211;-71
2022/02/06 03:51:18;;;;;;;59.88;3.05;;;;;;;;;;5051294;28;20232;-71
2022/02/06 03:57:10;;;;;;;63.60;3.10;;;;;;;;;;5050052;28;20631;-71
2022/02/06 03:59:50;;;;;;;59.05;2.92;;;;;;;;;;5051238;28;20210;-71
2022/02/06 04:02:27;;;;;;;59.15;3.00;;;;;;;;;;5051636;28;20202;-71
2022/02/06 04:05:04;;;;;;;58.90;3.10;;;;;;;;;;5054759;28;20234;-70
2022/02/06 04:07:40;;;;;;;59.13;3.05;;;;;;;;;;5054324;28;20297;-71
2022/02/06 04:10:16;;;;;;;60.35;2.70;;;;;;;;;;5055039;28;20259;-71
2022/02/06 04:12:49;;;;;;;60.80;3.40;;;;;;;;;;5054973;28;20202;-71
2022/02/06 04:15:26;;;;;;;58.20;2.80;;;;;;;;;;5055161;28;20304;-71
2022/02/06 04:18:10;;;;;;;59.03;2.63;;;;;;;;;;5056063;28;20379;-70
2022/02/06 04:20:39;;;;;;;60.53;3.17;;;;;;;;;;5074806;28;20217;-70
2022/02/06 04:23:11;;;;;;;61.75;3.22;;;;;;;;;;5073613;28;20761;-71
2022/02/06 04:25:42;;;;;;;58.80;3.22;;;;;;;;;;5074606;28;20230;-70
2022/02/06 04:28:29;;;;;;;58.47;3.15;;;;;;;;;;5074248;28;20296;-70
2022/02/06 04:30:58;;;;;;;58.28;2.92;;;;;;;;;;5074640;28;20216;-71
2022/02/06 04:33:56;;;;;;;61.92;3.67;;;;;;;;;;5074305;28;20225;-71
2022/02/06 04:36:35;;;;;;;59.92;3.03;;;;;;;;;;5074678;28;20221;-70
2022/02/06 04:39:35;;;;;;;60.42;3.10;;;;;;;;;;5073863;28;20672;-70
2022/02/06 04:42:15;;;;;;;58.58;2.90;;;;;;;;;;5074362;28;20733;-71
2022/02/06 05:18:51;;;;;;;58.13;2.78;;;;;;;;;;5028822;28;20272;-71
2022/02/06 05:22:02;;;;;;;60.67;3.40;;;;;;;;;;5052219;28;20252;-71
2022/02/06 05:27:36;;;;;;;61.05;3.40;;;;;;;;;;4991265;28;20200;-70
2022/02/06 05:30:11;;;;;;;61.65;3.38;;;;;;;;;;4991596;28;20220;-70
2022/02/06 05:32:57;;;;;;;66.70;3.50;;;;;;;;;;4991846;28;20295;-71
2022/02/06 05:35:27;;;;;;;60.83;3.25;;;;;;;;;;4991756;28;20200;-71
2022/02/06 05:38:03;;;;;;;59.30;3.40;;;;;;;;;;4991374;28;20708;-71
2022/02/06 05:40:48;;;;;;;60.55;3.22;;;;;;;;;;4991890;28;20250;-71
2022/02/06 05:43:17;;;;;;;61.03;3.33;;;;;;;;;;4990681;28;20228;-71
2022/02/06 05:45:47;;;;;;;63.80;3.53;;;;;;;;;;4991215;28;20723;-71
2022/02/06 05:48:16;;;;;;;59.95;3.03;;;;;;;;;;4990436;28;20212;-71
2022/02/06 05:50:46;;;;;;;61.28;3.67;;;;;;;;;;4991631;28;20212;-71
2022/02/06 05:53:19;;;;;;;60.03;3.55;;;;;;;;;;4985402;28;20252;-71
2022/02/06 05:55:50;;;;;;;60.17;3.25;;;;;;;;;;4972131;28;20251;-71
2022/02/06 05:58:23;;;;;;;59.65;3.25;;;;;;;;;;4971617;28;20252;-71
2022/02/06 06:00:52;;;;;;;59.72;3.38;;;;;;;;;;4971952;28;20689;-71
2022/02/06 06:03:22;;;;;;;58.72;3.25;;;;;;;;;;4971936;28;20240;-71
2022/02/06 06:08:58;;;;;;;58.10;3.15;;;;;;;;;;5031549;28;20218;-71
2022/02/06 06:11:29;;;;;;;60.08;3.10;;;;;;;;;;5033061;28;20698;-71
2022/02/06 06:14:00;;;;;;;63.38;3.97;;;;;;;;;;5033182;28;20711;-71
2022/02/06 06:19:17;;;;;;;59.08;3.47;;;;;;;;;;5019119;28;20210;-71
2022/02/06 06:21:54;;;;;;;58.30;3.13;;;;;;;;;;5032714;28;20254;-71
2022/02/06 06:24:35;;;;;;;58.10;3.37;;;;;;;;;;5031425;28;20726;-71
2022/02/06 06:27:13;;;;;;;58.70;3.30;;;;;;;;;;5031917;28;20437;-69
2022/02/06 06:29:52;;;;;;;66.15;3.55;;;;;;;;;;5031658;28;20214;-70
2022/02/06 06:32:21;;;;;;;65.00;3.50;;;;;;;;;;5032726;28;20597;-71
2022/02/06 06:34:54;;;;;;;59.80;3.15;;;;;;;;;;5032241;28;20602;-71
2022/02/06 06:37:24;;;;;;;59.42;2.80;;;;;;;;;;5032043;28;20234;-71
2022/02/06 06:39:55;;;;;;;60.10;3.10;;;;;;;;;;5032719;28;20579;-71
2022/02/06 06:42:25;;;;;;;59.72;3.17;;;;;;;;;;5032024;28;20608;-70
2022/02/06 06:44:54;;;;;;;59.90;3.35;;;;;;;;;;5031128;28;20234;-71
2022/02/06 06:47:24;;;;;;;58.85;2.80;;;;;;;;;;5031835;28;20209;-74
2022/02/06 06:49:59;;;;;;;59.67;3.15;;;;;;;;;;5032029;28;20587;-71
2022/02/06 06:52:31;;;;;;;58.00;2.97;;;;;;;;;;5032063;28;20578;-71
2022/02/06 06:55:05;;;;;;;64.57;3.60;;;;;;;;;;5031747;28;20223;-70
2022/02/06 06:57:52;;;;;;;62.50;3.33;;;;;;;;;;5031003;28;20214;-71
2022/02/06 07:00:36;;;;;;;62.83;3.50;;;;;;;;;;5032072;28;20207;-71
2022/02/06 07:03:06;;;;;;;59.05;3.17;;;;;;;;;;5031468;28;20711;-71
2022/02/06 07:05:35;;;;;;;60.33;2.90;;;;;;;;;;5031922;28;20245;-71
2022/02/06 07:08:05;;;;;;;59.65;3.20;;;;;;;;;;5031647;28;20233;-71
2022/02/06 07:10:36;;;;;;;59.50;2.88;;;;;;;;;;5031691;28;20278;-71
2022/02/06 07:13:08;;;;;;;58.30;3.10;;;;;;;;;;5031475;28;20253;-71
2022/02/06 07:15:37;;;;;;;60.10;3.08;;;;;;;;;;5031816;28;20210;-71
2022/02/06 07:18:07;;;;;;;58.17;3.00;;;;;;;;;;5031735;28;20237;-71
2022/02/06 07:20:37;;;;;;;59.65;3.10;;;;;;;;;;5031867;28;20246;-71
2022/02/06 07:23:08;;;;;;;60.58;3.05;;;;;;;;;;5031728;28;20226;-71
2022/02/06 07:25:49;;;;;;;62.75;3.15;;;;;;;;;;5031803;28;20277;-71
2022/02/06 07:28:21;;;;;;;61.58;3.00;;;;;;;;;;5031603;28;20297;-70
2022/02/06 07:30:52;;;;;;;58.53;3.08;;;;;;;;;;5031436;28;20719;-71
2022/02/06 07:33:27;;;;;;;58.55;3.13;;;;;;;;;;5031638;28;20598;-71
2022/02/06 07:36:02;;;;;;;59.10;3.25;;;;;;;;;;5031894;28;20211;-71
2022/02/06 07:38:31;;;;;;;63.25;3.10;;;;;;;;;;5035445;28;20206;-71
2022/02/06 07:41:02;;;;;;;59.25;3.20;;;;;;;;;;5035213;28;20207;-71
2022/02/06 07:43:40;;;;;;;63.75;3.33;;;;;;;;;;5035087;28;20234;-71
2022/02/06 07:46:13;;;;;;;60.17;3.60;;;;;;;;;;5035473;28;20223;-71
2022/02/06 07:48:47;;;;;;;63.30;3.45;;;;;;;;;;5035302;28;20220;-71
2022/02/06 07:51:16;;;;;;;58.33;3.05;;;;;;;;;;5035637;28;20212;-71
2022/02/06 07:53:47;;;;;;;59.97;2.90;;;;;;;;;;5035331;28;20223;-71
2022/02/06 07:56:21;;;;;;;61.45;3.45;;;;;;;;;;5035535;28;20211;-71
2022/02/06 07:58:50;;;;;;;61.40;3.10;;;;;;;;;;5035430;28;20210;-71
2022/02/06 08:01:20;;;;;;;65.53;3.33;;;;;;;;;;5035247;28;20214;-71
2022/02/06 08:03:49;;;;;;;59.80;3.10;;;;;;;;;;5034178;28;20252;-71
2022/02/06 08:06:17;;;;;;;58.08;2.65;;;;;;;;;;5035128;28;20230;-71
2022/02/06 08:08:47;;;;;;;59.13;3.05;;;;;;;;;;5035368;28;20232;-71
2022/02/06 08:11:20;;;;;;;63.97;3.20;;;;;;;;;;5035019;28;20247;-71
2022/02/06 08:13:56;;;;;;;58.33;3.00;;;;;;;;;;5034929;28;20269;-71
2022/02/06 08:16:25;;;;;;;60.55;3.40;;;;;;;;;;5035157;28;20203;-71
2022/02/06 08:19:00;;;;;;;60.60;3.22;;;;;;;;;;5034761;28;20210;-71
2022/02/06 08:21:34;;;;;;;60.58;3.42;;;;;;;;;;5035008;28;20214;-71
2022/02/06 08:24:15;;;;;;;58.13;3.00;;;;;;;;;;5034774;28;20234;-71
2022/02/06 08:26:47;;;;;;;64.28;3.75;;;;;;;;;;5034992;28;20229;-71
2022/02/06 08:29:18;;;;;;;60.83;3.13;;;;;;;;;;5033841;28;20203;-71
2022/02/06 08:31:48;;;;;;;58.20;3.10;;;;;;;;;;5034665;28;20207;-71
2022/02/06 08:34:28;;;;;;;59.42;3.55;;;;;;;;;;5034699;28;20227;-71
2022/02/06 08:36:59;;;;;;;59.40;2.95;;;;;;;;;;5034765;28;20288;-71
2022/02/06 08:39:31;;;;;;;58.97;2.90;;;;;;;;;;5034615;28;20334;-71
2022/02/06 08:42:04;;;;;;;59.95;2.63;;;;;;;;;;5034631;28;20218;-71
2022/02/06 08:44:32;;;;;;;59.55;3.42;;;;;;;;;;5034805;28;20230;-71
2022/02/06 08:47:02;;;;;;;58.07;2.60;;;;;;;;;;5034352;28;20230;-71
2022/02/06 08:49:32;;;;;;;61.75;3.10;;;;;;;;;;5033528;28;20453;-71
2022/02/06 08:52:01;;;;;;;59.17;3.30;;;;;;;;;;5034691;28;20217;-71
2022/02/06 08:54:37;;;;;;;59.33;3.10;;;;;;;;;;5034286;28;20469;-71
2022/02/06 08:57:13;;;;;;;59.42;3.15;;;;;;;;;;5034227;28;20296;-71
2022/02/06 08:59:43;;;;;;;60.05;3.20;;;;;;;;;;5033981;28;20514;-71
2022/02/06 09:02:12;;;;;;;63.00;3.20;;;;;;;;;;5034480;28;20207;-71
2022/02/06 09:04:42;;;;;;;60.53;3.43;;;;;;;;;;5034222;28;20465;-72
2022/02/06 09:07:12;;;;;;;60.22;3.20;;;;;;;;;;5034073;28;20490;-71
2022/02/06 09:09:45;;;;;;;62.50;3.58;;;;;;;;;;5034173;28;20207;-71
2022/02/06 09:12:26;;;;;;;59.10;3.22;;;;;;;;;;5034136;28;20573;-72
2022/02/06 09:14:58;;;;;;;61.90;4.00;;;;;;;;;;5034002;28;20578;-71
2022/02/06 09:17:30;;;;;;;61.37;2.87;;;;;;;;;;5033614;28;20449;-72
2022/02/06 09:20:00;;;;;;;59.05;3.30;;;;;;;;;;5033914;28;20477;-71
2022/02/06 09:22:32;;;;;;;60.35;3.53;;;;;;;;;;5033689;28;20207;-71
2022/02/06 09:25:03;;;;;;;60.97;3.40;;;;;;;;;;5033846;28;20230;-71
2022/02/06 09:27:36;;;;;;;59.40;3.20;;;;;;;;;;5033446;28;20551;-71
2022/02/06 09:30:06;;;;;;;61.57;3.30;;;;;;;;;;5033847;28;20458;-71
2022/02/06 09:37:33;;;;;;;60.50;2.93;;;;;;;;;;5033396;28;20196;-71
2022/02/06 09:40:02;;;;;;;59.67;3.00;;;;;;;;;;5033191;28;20468;-71
2022/02/06 09:42:32;;;;;;;59.30;3.10;;;;;;;;;;5033370;28;20453;-71
2022/02/06 09:45:04;;;;;;;60.40;3.70;;;;;;;;;;5033349;28;20477;-71
2022/02/06 09:47:35;;;;;;;58.97;2.70;;;;;;;;;;5032152;28;20489;-71
2022/02/06 09:50:05;;;;;;;60.97;3.00;;;;;;;;;;5033359;28;20445;-71
2022/02/06 09:52:38;;;;;;;59.40;3.20;;;;;;;;;;5033319;28;20457;-71
2022/02/06 09:55:16;;;;;;;60.20;3.23;;;;;;;;;;5033383;28;20453;-71
2022/02/06 09:57:53;;;;;;;60.23;3.10;;;;;;;;;;5033042;28;20503;-71
2022/02/06 10:00:27;;;;;;;59.93;3.30;;;;;;;;;;5032155;28;20863;-71
2022/02/06 10:03:02;;;;;;;62.90;3.13;;;;;;;;;;5033084;28;20488;-71
2022/02/06 10:05:35;;;;;;;59.23;2.80;;;;;;;;;;5033012;28;20873;-71
2022/02/06 10:08:12;;;;;;;64.03;3.70;;;;;;;;;;5033096;28;20453;-71
2022/02/06 10:10:50;;;;;;;59.20;2.93;;;;;;;;;;5033052;28;20437;-71
2022/02/06 10:13:23;;;;;;;58.37;2.80;;;;;;;;;;5032970;28;20527;-71
2022/02/06 10:15:54;;;;;;;58.17;2.83;;;;;;;;;;5033068;28;20442;-71
2022/02/06 10:18:26;;;;;;;61.97;3.10;;;;;;;;;;5032038;28;20453;-71
2022/02/06 10:21:02;;;;;;;58.17;3.20;;;;;;;;;;5032700;28;20950;-71
2022/02/06 10:23:43;;;;;;;58.80;2.80;;;;;;;;;;5032587;28;20473;-71
2022/02/06 10:26:24;;;;;;;60.13;2.93;;;;;;;;;;5032697;28;20481;-71
2022/02/06 10:29:25;;;;;;;59.70;2.80;;;;;;;;;;5032854;28;20464;-71
2022/02/06 10:32:12;;;;;;;59.50;2.60;;;;;;;;;;5032439;28;20543;-71
2022/02/06 10:34:50;;;;;;;60.00;3.60;;;;;;;;;;5032460;28;20513;-71
2022/02/06 10:37:21;;;;;;;60.20;3.10;;;;;;;;;;5032328;28;20437;-71
2022/02/06 10:40:05;;;;;;;58.57;2.80;;;;;;;;;;5033096;28;20438;-71
2022/02/06 10:42:36;;;;;;;61.63;3.40;;;;;;;;;;5032467;28;21049;-71
2022/02/06 10:45:18;;;;;;;57.77;2.80;;;;;;;;;;5032074;28;20454;-71
2022/02/06 10:47:50;;;;;;;59.20;2.90;;;;;;;;;;5032022;28;20485;-71
2022/02/06 10:50:20;;;;;;;58.60;3.00;;;;;;;;;;5031970;28;20449;-71
2022/02/06 10:52:53;;;;;;;57.90;2.50;;;;;;;;;;5031476;28;20958;-71
2022/02/06 10:55:25;;;;;;;60.17;3.73;;;;;;;;;;5032424;28;20952;-71
2022/02/06 10:57:58;;;;;;;59.50;2.70;;;;;;;;;;5032031;28;20477;-71
2022/02/06 11:00:31;;;;;;;58.77;2.60;;;;;;;;;;5032149;28;20934;-71
2022/02/06 11:03:09;;;;;;;60.17;3.40;;;;;;;;;;5031649;28;21000;-71
2022/02/06 11:05:49;;;;;;;61.40;2.80;;;;;;;;;;5032239;28;20833;-71
2022/02/06 11:08:28;;;;;;;58.80;2.70;;;;;;;;;;5031851;28;20430;-71
2022/02/06 11:11:02;;;;;;;60.00;2.93;;;;;;;;;;5031327;28;20507;-71
2022/02/06 11:13:40;;;;;;;61.13;2.70;;;;;;;;;;5031939;28;21030;-71
2022/02/06 11:16:23;;;;;;;61.00;3.07;;;;;;;;;;5032262;28;20825;-71
2022/02/06 11:18:59;;;;;;;57.87;3.03;;;;;;;;;;5031656;28;20820;-71
2022/02/06 11:21:30;;;;;;;59.33;3.10;;;;;;;;;;5031969;28;20451;-71
2022/02/06 11:24:05;;;;;;;60.07;3.60;;;;;;;;;;5031857;28;20887;-71
2022/02/06 11:26:39;;;;;;;63.73;3.53;;;;;;;;;;5031902;28;20555;-71
2022/02/06 11:29:12;;;;;;;58.67;3.10;;;;;;;;;;5031481;28;20799;-71
2022/02/06 11:31:44;;;;;;;60.00;2.80;;;;;;;;;;5031674;28;20818;-71
2022/02/06 11:34:18;;;;;;;57.97;2.80;;;;;;;;;;5031613;28;20539;-71
2022/02/06 11:45:20;;;;;;;59.00;2.67;;;;;;;;;;5031887;28;20448;-70
2022/02/06 11:47:56;;;;;;;58.53;2.93;;;;;;;;;;5031427;28;20481;-71
2022/02/06 11:50:30;;;;;;;59.40;3.30;;;;;;;;;;5031683;28;20453;-71
2022/02/06 11:52:59;;;;;;;58.60;2.67;;;;;;;;;;5031763;28;20465;-71
2022/02/06 11:55:50;;;;;;;58.20;2.70;;;;;;;;;;5031529;28;20441;-71
2022/02/06 11:58:38;;;;;;;58.20;3.03;;;;;;;;;;5031351;28;20463;-71
2022/02/06 12:01:26;;;;;;;60.17;3.23;;;;;;;;;;5031494;28;20450;-71
2022/02/06 12:04:00;;;;;;;61.27;3.50;;;;;;;;;;5031385;28;20473;-71
2022/02/06 12:06:32;;;;;;;59.57;3.77;;;;;;;;;;5031483;28;20489;-71
2022/02/06 12:09:17;;;;;;;61.67;3.50;;;;;;;;;;5031228;28;20453;-71
2022/02/06 12:12:03;;;;;;;58.87;2.50;;;;;;;;;;5031473;28;20449;-71
2022/02/06 12:14:38;;;;;;;58.67;2.53;;;;;;;;;;5020549;28;20489;-71
2022/02/06 12:17:16;;;;;;;58.83;2.83;;;;;;;;;;5031818;28;20974;-71
2022/02/06 12:19:49;;;;;;;59.13;2.80;;;;;;;;;;5031523;28;20457;-71
2022/02/06 12:22:38;;;;;;;58.97;2.63;;;;;;;;;;5032010;28;20627;-72
2022/02/06 12:25:25;;;;;;;57.63;2.63;;;;;;;;;;5056218;28;20449;-71
2022/02/06 12:28:17;;;;;;;58.30;2.70;;;;;;;;;;5056472;28;20481;-71
2022/02/06 12:30:46;;;;;;;58.30;2.90;;;;;;;;;;5058175;28;20458;-71
2022/02/06 12:33:26;;;;;;;58.60;2.70;;;;;;;;;;5057874;28;20476;-71
2022/02/06 12:38:46;;;;;;;58.10;2.53;;;;;;;;;;5043928;28;20842;-71
2022/02/06 12:41:24;;;;;;;60.20;3.00;;;;;;;;;;5034609;28;20466;-71
2022/02/06 12:44:04;;;;;;;62.30;3.43;;;;;;;;;;5034152;28;20469;-71
2022/02/06 12:46:34;;;;;;;57.93;2.60;;;;;;;;;;5034398;28;20457;-71
2022/02/06 12:49:04;;;;;;;59.60;2.60;;;;;;;;;;5034253;28;20453;-71
2022/02/06 12:51:37;;;;;;;61.07;2.43;;;;;;;;;;5034463;28;20452;-71
2022/02/06 12:54:09;;;;;;;58.37;2.30;;;;;;;;;;5034370;28;20535;-71
2022/02/06 12:56:41;;;;;;;58.30;2.80;;;;;;;;;;5034379;28;20441;-71
2022/02/06 12:59:12;;;;;;;58.10;2.33;;;;;;;;;;5034091;28;20449;-71
2022/02/06 13:01:53;;;;;;;58.20;2.53;;;;;;;;;;5034373;28;20445;-71
2022/02/06 13:04:27;;;;;;;61.47;2.93;;;;;;;;;;5033889;28;20469;-71
2022/02/06 13:07:05;;;;;;;58.40;2.60;;;;;;;;;;5034271;28;20517;-72
2022/02/06 13:10:01;;;;;;;58.60;2.70;;;;;;;;;;5034044;28;20457;-69
2022/02/06 13:12:38;;;;;;;58.57;2.50;;;;;;;;;;5034018;28;20461;-72
2022/02/06 13:18:16;;;;;;;58.00;2.40;;;;;;;;;;5030336;28;20527;-72
2022/02/06 13:27:01;;;;;;;59.67;2.77;;;;;;;;;;4997881;28;20481;-71
2022/02/06 13:29:44;;;;;;;57.57;2.70;;;;;;;;;;5034020;28;20495;-71
2022/02/06 13:32:39;;;;;;;57.77;2.77;;;;;;;;;;5033694;28;20480;-71
2022/02/06 13:35:25;;;;;;;64.47;3.03;;;;;;;;;;5033432;28;20461;-71
2022/02/06 13:38:02;;;;;;;59.13;3.00;;;;;;;;;;5032859;28;21136;-72
2022/02/06 13:40:37;;;;;;;59.77;3.20;;;;;;;;;;5040565;28;20485;-71
2022/02/06 13:43:18;;;;;;;57.80;2.40;;;;;;;;;;5050793;28;20478;-72
2022/02/06 13:45:56;;;;;;;58.10;2.80;;;;;;;;;;5052873;28;20455;-72
2022/02/06 13:48:26;;;;;;;61.30;3.30;;;;;;;;;;5051873;28;20864;-71
2022/02/06 13:51:01;;;;;;;57.67;2.80;;;;;;;;;;5052888;28;20933;-70
2022/02/06 13:53:33;;;;;;;57.57;2.47;;;;;;;;;;5052598;28;20472;-71
2022/02/06 13:56:06;;;;;;;58.00;2.60;;;;;;;;;;5052811;28;20457;-71
2022/02/06 13:58:37;;;;;;;57.67;2.40;;;;;;;;;;5052554;28;20526;-70
2022/02/06 14:01:11;;;;;;;57.70;2.40;;;;;;;;;;5052632;28;20209;-71
2022/02/06 14:03:47;;;;;;;59.40;2.60;;;;;;;;;;5052490;28;20468;-70
2022/02/06 14:06:20;;;;;;;57.93;2.53;;;;;;;;;;5052668;28;20448;-71
2022/02/06 14:09:08;;;;;;;60.13;3.53;;;;;;;;;;5052253;28;20542;-71
2022/02/06 14:11:38;;;;;;;57.77;2.50;;;;;;;;;;5052401;28;20479;-70
2022/02/06 14:14:19;;;;;;;58.03;2.75;;;;;;;;;;5050647;28;20483;-71
2022/02/06 14:16:52;;;;;;;60.20;3.70;;;;;;;;;;5052148;28;20206;-70
2022/02/06 14:19:39;;;;;;;58.22;2.95;;;;;;;;;;5052015;28;20249;-71
2022/02/06 14:22:14;;;;;;;59.00;2.60;;;;;;;;;;5052690;28;20210;-71
2022/02/06 14:25:00;;;;;;;58.17;2.83;;;;;;;;;;5052302;28;20714;-71
2022/02/06 14:27:33;;;;;;;59.13;3.40;;;;;;;;;;5052234;28;20232;-71
2022/02/06 14:30:08;;;;;;;57.90;2.60;;;;;;;;;;5052539;28;20209;-71
2022/02/06 14:32:40;;;;;;;57.80;2.40;;;;;;;;;;5052429;28;20216;-71
2022/02/06 14:35:13;;;;;;;58.88;3.25;;;;;;;;;;5052246;28;20217;-72
2022/02/06 14:37:50;;;;;;;62.15;5.30;;;;;;;;;;5051560;28;20205;-72
2022/02/06 14:40:38;;;;;;;58.30;2.80;;;;;;;;;;5051999;28;20214;-71
2022/02/06 14:43:15;;;;;;;58.70;3.42;;;;;;;;;;5052656;28;20226;-71
2022/02/06 14:45:50;;;;;;;58.15;2.55;;;;;;;;;;5057854;28;20278;-71
2022/02/06 14:48:21;;;;;;;58.90;3.08;;;;;;;;;;5071929;28;20233;-71
2022/02/06 14:50:55;;;;;;;57.97;2.70;;;;;;;;;;5072286;28;20240;-71
2022/02/06 14:53:27;;;;;;;58.35;2.85;;;;;;;;;;5071895;28;20307;-71
2022/02/06 14:55:59;;;;;;;58.03;2.83;;;;;;;;;;5071441;28;20212;-72
2022/02/06 14:58:32;;;;;;;58.45;2.72;;;;;;;;;;5070989;28;20198;-71
2022/02/06 15:01:01;;;;;;;58.55;2.80;;;;;;;;;;5071452;28;20225;-71
2022/02/06 15:03:34;;;;;;;59.20;3.30;;;;;;;;;;5071780;28;20225;-71
2022/02/06 15:06:09;;;;;;;58.20;2.70;;;;;;;;;;5071852;28;20212;-71
2022/02/06 15:08:38;;;;;;;59.75;3.10;;;;;;;;;;5071547;28;20220;-71
2022/02/06 15:11:08;;;;;;;58.35;2.65;;;;;;;;;;5071834;28;20216;-71
2022/02/06 15:13:46;;;;;;;59.83;3.58;;;;;;;;;;5071646;28;20229;-71
2022/02/06 15:16:22;;;;;;;58.63;2.70;;;;;;;;;;5067510;28;20215;-72
2022/02/06 15:18:58;;;;;;;59.53;3.40;;;;;;;;;;5050816;28;20592;-71
2022/02/06 15:21:37;;;;;;;58.33;2.97;;;;;;;;;;5051637;28;20244;-71
2022/02/06 15:24:12;;;;;;;58.72;3.45;;;;;;;;;;5050731;28;20230;-71
2022/02/06 15:26:41;;;;;;;58.10;2.80;;;;;;;;;;5051638;28;20241;-70
2022/02/06 15:29:14;;;;;;;59.10;3.03;;;;;;;;;;5050510;28;20226;-71
2022/02/06 15:31:43;;;;;;;58.17;2.90;;;;;;;;;;5051707;28;20272;-71
2022/02/06 15:34:18;;;;;;;58.10;2.90;;;;;;;;;;5051300;28;20226;-71
2022/02/06 15:36:59;;;;;;;57.92;2.65;;;;;;;;;;5051414;28;20214;-71
2022/02/06 15:39:35;;;;;;;58.10;2.80;;;;;;;;;;5051035;28;20683;-71
2022/02/06 15:42:09;;;;;;;59.65;3.08;;;;;;;;;;5051356;28;20209;-71
2022/02/06 15:44:41;;;;;;;58.58;3.10;;;;;;;;;;5051352;28;20771;-71
2022/02/06 15:47:14;;;;;;;61.13;3.40;;;;;;;;;;5051418;28;20229;-72
2022/02/06 15:49:49;;;;;;;57.88;3.20;;;;;;;;;;5050291;28;20207;-71
2022/02/06 15:52:29;;;;;;;60.45;3.15;;;;;;;;;;5051623;28;20233;-72
2022/02/06 15:54:58;;;;;;;58.00;2.90;;;;;;;;;;5051502;28;20237;-71
2022/02/06 15:57:32;;;;;;;57.78;2.92;;;;;;;;;;5053633;28;20689;-71
2022/02/06 16:00:04;;;;;;;60.70;5.03;;;;;;;;;;5074089;28;20802;-71
2022/02/06 16:02:36;;;;;;;59.40;3.80;;;;;;;;;;5074257;28;20552;-71
2022/02/06 16:05:11;;;;;;;58.40;3.00;;;;;;;;;;5074690;28;20674;-71
2022/02/06 16:07:41;;;;;;;59.15;3.97;;;;;;;;;;5074628;28;20260;-71
2022/02/06 16:10:12;;;;;;;58.00;2.70;;;;;;;;;;5074993;28;20751;-72
2022/02/06 16:12:44;;;;;;;57.67;2.90;;;;;;;;;;5074801;28;20289;-71
2022/02/06 16:15:16;;;;;;;60.83;4.70;;;;;;;;;;5075324;28;20588;-71
2022/02/06 16:17:46;;;;;;;58.15;3.05;;;;;;;;;;5074166;28;20662;-70
2022/02/06 16:20:24;;;;;;;57.67;2.50;;;;;;;;;;5074498;28;20213;-71
2022/02/06 16:22:53;;;;;;;59.10;2.83;;;;;;;;;;5072971;28;20201;-71
2022/02/06 16:25:26;;;;;;;58.03;2.78;;;;;;;;;;5074941;28;20671;-71
2022/02/06 16:27:57;;;;;;;58.20;3.00;;;;;;;;;;5074480;28;20316;-71
2022/02/06 16:30:24;;;;;;;57.92;2.75;;;;;;;;;;5068251;28;20210;-71
2022/02/06 16:32:55;;;;;;;57.75;2.67;;;;;;;;;;5054823;28;20219;-71
2022/02/06 16:35:28;;;;;;;57.78;2.58;;;;;;;;;;5054953;28;20246;-71
2022/02/06 16:37:55;;;;;;;57.67;2.65;;;;;;;;;;5053709;28;20578;-70
2022/02/06 16:40:28;;;;;;;58.35;2.70;;;;;;;;;;5054635;28;20245;-71
2022/02/06 16:42:57;;;;;;;57.90;2.60;;;;;;;;;;5054274;28;20206;-71
2022/02/06 16:45:32;;;;;;;58.28;2.75;;;;;;;;;;5054180;28;20575;-71
2022/02/06 16:48:19;;;;;;;57.88;2.53;;;;;;;;;;5053577;28;20225;-71
2022/02/06 16:50:56;;;;;;;58.03;2.70;;;;;;;;;;5054590;28;20232;-71
2022/02/06 16:53:24;;;;;;;57.63;2.75;;;;;;;;;;5052733;28;20252;-71
2022/02/06 16:55:51;;;;;;;57.78;2.70;;;;;;;;;;5054667;28;20578;-71
2022/02/06 16:58:19;;;;;;;58.10;2.85;;;;;;;;;;5053746;28;20575;-71
2022/02/06 17:00:48;;;;;;;58.13;2.80;;;;;;;;;;5053372;28;20198;-71
2022/02/06 17:03:17;;;;;;;58.10;2.83;;;;;;;;;;5053325;28;20238;-71
2022/02/06 17:05:49;;;;;;;57.90;2.53;;;;;;;;;;5053742;28;20209;-71
2022/02/06 17:08:21;;;;;;;69.05;6.82;;;;;;;;;;5053507;28;20299;-71
2022/02/06 17:10:52;;;;;;;58.15;3.10;;;;;;;;;;5053662;28;20206;-71